Terminal Aerodrome Forecast
Issued by NWS

Home | Current Version | Previous Version | Text Only | Print | Product List | Glossary Off
Versions: 1 2 3 4 5 6 7 8 9 10 11 12 13 14 15

150
FTUS43 KUNR 251120
TAFGCC
TAF
KGCC 251120Z 2512/2612 16011KT P6SM SKC
     FM252100 12008KT P6SM SCT080
     FM260500 16006KT P6SM SKC=

USA.gov is the U.S. government's official web portal to all federal, state and local government web resources and services.